This is the latest recevied weather packets stored in our database for station/object VE2XOX. If no packets are shown the sender has not sent any weather packets the latest 10 day(s).
| Time | Temp. | Humidity | Pressure | Rain* | Wind** | Luminosity | Snow |
|---|---|---|---|---|---|---|---|
| 1777869030 | 1.67° C | 71% | 1005.1 hPa | 0 mm | - | - | - |
| 1777868713 | 1.67° C | 71% | 1005.2 hPa | 0 mm | - | - | - |
| 1777868424 | 1.67° C | 71% | 1005.2 hPa | 0 mm | - | - | - |
| 1777868127 | 1.67° C | 72% | 1005.1 hPa | 0 mm | - | - | - |
| 1777867831 | 1.67° C | 73% | 1005.3 hPa | 0 mm | - | - | - |
| 1777867516 | 1.11° C | 74% | 1005.2 hPa | 0 mm | - | - | - |
| 1777867219 | 1.11° C | 75% | 1005.2 hPa | 0 mm | - | - | - |
| 1777866932 | 1.11° C | 75% | 1005.2 hPa | 0 mm | - | - | - |
| 1777866617 | 1.11° C | 74% | 1005.3 hPa | 0 mm | - | - | - |
| 1777866032 | 1.11° C | 73% | 1005.3 hPa | 0 mm | - | - | - |
| 1777865421 | 1.67° C | 72% | 1005.2 hPa | 0 mm | - | - | - |
| 1777865134 | 1.67° C | 71% | 1005.2 hPa | 0 mm | - | - | - |
| 1777864821 | 1.67° C | 71% | 1005.2 hPa | 0 mm | - | - | - |
| 1777864526 | 1.67° C | 70% | 1005.2 hPa | 0 mm | - | - | - |
| 1777864237 | 2.22° C | 70% | 1005.1 hPa | 0 mm | - | - | - |
| 1777863628 | 2.22° C | 68% | 1005.1 hPa | 0 mm | - | - | - |
| 1777863024 | 2.22° C | 67% | 1005.1 hPa | 0 mm | - | - | - |
| 1777847731 | 9.44° C | 41% | 1004.4 hPa | 0 mm | - | - | - |
| 1777845933 | 10° C | 39% | 1004.4 hPa | 0 mm | - | - | - |
| 1777845323 | 10° C | 40% | 1004.4 hPa | 0 mm | - | - | - |
| 1777844721 | 10° C | 40% | 1004.4 hPa | 0 mm | - | - | - |
| 1777843524 | 10° C | 39% | 1004.5 hPa | 0 mm | - | - | - |
| 1777843230 | 10° C | 40% | 1004.5 hPa | 0 mm | - | - | - |
| 1777842922 | 10° C | 39% | 1004.5 hPa | 0 mm | - | - | - |
| 1777842626 | 10° C | 40% | 1004.6 hPa | 0 mm | - | - | - |
* Rain latest hour (hover to see other rain measurements)
** Current wind speed in m/s (hover to see current wind gust speed)